Terminal Aerodrome Forecast
Issued by NWS

Home | Current Version | Previous Version | Graphics & Text | Print | Product List | Glossary On
Versions: 1 2 3 4 5 6 7 8 9 10 11 12 13
000
FTUS43 KICT 060520
TAFCNU
TAF
KCNU 060520Z 0606/0706 11007KT P6SM OVC080
     FM060900 17013KT P6SM VCSH SCT015 OVC080
     FM061300 17017G22KT 4SM RA OVC008=

USA.gov is the U.S. government's official web portal to all federal, state and local government web resources and services.